sensor_id;sensor_type;location;lat;lon;timestamp;temperature;humidity
74416;SHT31;62850;42.428;25.618;2023-07-28T00:01:25;19.97;43.90
74416;SHT31;62850;42.428;25.618;2023-07-28T00:03:50;19.98;43.79
74416;SHT31;62850;42.428;25.618;2023-07-28T00:06:16;19.97;43.90
74416;SHT31;62850;42.428;25.618;2023-07-28T00:08:41;20.01;43.90
74416;SHT31;62850;42.428;25.618;2023-07-28T00:11:11;19.97;43.92
74416;SHT31;62850;42.428;25.618;2023-07-28T00:13:38;20.04;43.91
74416;SHT31;62850;42.428;25.618;2023-07-28T00:16:04;20.03;43.78
74416;SHT31;62850;42.428;25.618;2023-07-28T00:18:29;20.00;43.89
74416;SHT31;62850;42.428;25.618;2023-07-28T00:20:55;20.01;43.85
74416;SHT31;62850;42.428;25.618;2023-07-28T00:23:20;19.93;44.09
74416;SHT31;62850;42.428;25.618;2023-07-28T00:25:45;19.87;44.21
74416;SHT31;62850;42.428;25.618;2023-07-28T00:28:11;19.93;44.05
74416;SHT31;62850;42.428;25.618;2023-07-28T00:30:37;19.91;44.10
74416;SHT31;62850;42.428;25.618;2023-07-28T00:33:02;19.93;44.01
74416;SHT31;62850;42.428;25.618;2023-07-28T00:35:28;19.87;44.13
74416;SHT31;62850;42.428;25.618;2023-07-28T00:37:53;19.87;44.22
74416;SHT31;62850;42.428;25.618;2023-07-28T00:40:18;19.87;44.20
74416;SHT31;62850;42.428;25.618;2023-07-28T00:42:44;19.81;44.25
74416;SHT31;62850;42.428;25.618;2023-07-28T00:45:10;19.78;44.36
74416;SHT31;62850;42.428;25.618;2023-07-28T00:47:36;19.78;44.45
74416;SHT31;62850;42.428;25.618;2023-07-28T00:50:02;19.75;44.32
74416;SHT31;62850;42.428;25.618;2023-07-28T00:52:28;19.75;44.32
74416;SHT31;62850;42.428;25.618;2023-07-28T00:54:54;19.67;44.46
74416;SHT31;62850;42.428;25.618;2023-07-28T00:57:19;19.63;44.56
74416;SHT31;62850;42.428;25.618;2023-07-28T00:59:45;19.67;44.59
74416;SHT31;62850;42.428;25.618;2023-07-28T01:02:11;19.62;44.48
74416;SHT31;62850;42.428;25.618;2023-07-28T01:04:37;19.62;44.62
74416;SHT31;62850;42.428;25.618;2023-07-28T01:07:10;19.59;44.67
74416;SHT31;62850;42.428;25.618;2023-07-28T01:12:37;19.50;44.78
74416;SHT31;62850;42.428;25.618;2023-07-28T01:15:03;19.54;44.90
74416;SHT31;62850;42.428;25.618;2023-07-28T01:17:29;19.49;45.00
74416;SHT31;62850;42.428;25.618;2023-07-28T01:19:54;19.45;45.07
74416;SHT31;62850;42.428;25.618;2023-07-28T01:25:47;19.40;45.09
74416;SHT31;62850;42.428;25.618;2023-07-28T01:28:13;19.37;45.10
74416;SHT31;62850;42.428;25.618;2023-07-28T01:30:40;19.46;44.99
74416;SHT31;62850;42.428;25.618;2023-07-28T01:33:07;19.46;45.03
74416;SHT31;62850;42.428;25.618;2023-07-28T01:35:35;19.46;44.93
74416;SHT31;62850;42.428;25.618;2023-07-28T01:38:00;19.45;45.07
74416;SHT31;62850;42.428;25.618;2023-07-28T01:40:26;19.37;45.15
74416;SHT31;62850;42.428;25.618;2023-07-28T01:42:51;19.43;45.05
74416;SHT31;62850;42.428;25.618;2023-07-28T01:45:17;19.47;45.05
74416;SHT31;62850;42.428;25.618;2023-07-28T01:47:42;19.40;45.17
74416;SHT31;62850;42.428;25.618;2023-07-28T01:50:08;19.37;45.24
74416;SHT31;62850;42.428;25.618;2023-07-28T01:52:33;19.40;45.20
74416;SHT31;62850;42.428;25.618;2023-07-28T01:54:59;19.40;45.17
74416;SHT31;62850;42.428;25.618;2023-07-28T01:57:24;19.42;45.18
74416;SHT31;62850;42.428;25.618;2023-07-28T01:59:53;19.39;45.13
74416;SHT31;62850;42.428;25.618;2023-07-28T02:02:18;19.39;45.13
74416;SHT31;62850;42.428;25.618;2023-07-28T02:04:44;19.42;45.12
74416;SHT31;62850;42.428;25.618;2023-07-28T02:07:09;19.46;44.97
74416;SHT31;62850;42.428;25.618;2023-07-28T02:09:35;19.50;44.72
74416;SHT31;62850;42.428;25.618;2023-07-28T02:12:00;19.53;44.66
74416;SHT31;62850;42.428;25.618;2023-07-28T02:14:26;19.54;44.64
74416;SHT31;62850;42.428;25.618;2023-07-28T02:16:51;19.52;44.79
74416;SHT31;62850;42.428;25.618;2023-07-28T02:19:17;19.47;44.87
74416;SHT31;62850;42.428;25.618;2023-07-28T02:21:42;19.47;44.78
74416;SHT31;62850;42.428;25.618;2023-07-28T02:24:08;19.54;44.69
74416;SHT31;62850;42.428;25.618;2023-07-28T02:26:33;19.50;44.87
74416;SHT31;62850;42.428;25.618;2023-07-28T02:28:58;19.52;44.84
74416;SHT31;62850;42.428;25.618;2023-07-28T02:31:24;19.57;44.67
74416;SHT31;62850;42.428;25.618;2023-07-28T02:33:49;19.54;44.76
74416;SHT31;62850;42.428;25.618;2023-07-28T02:36:15;19.52;44.86
74416;SHT31;62850;42.428;25.618;2023-07-28T02:38:40;19.49;45.37
74416;SHT31;62850;42.428;25.618;2023-07-28T02:41:06;19.60;45.30
74416;SHT31;62850;42.428;25.618;2023-07-28T02:43:32;19.64;44.95
74416;SHT31;62850;42.428;25.618;2023-07-28T02:45:57;19.64;44.72
74416;SHT31;62850;42.428;25.618;2023-07-28T02:48:23;19.71;45.28
74416;SHT31;62850;42.428;25.618;2023-07-28T02:50:50;19.85;46.54
74416;SHT31;62850;42.428;25.618;2023-07-28T02:53:16;19.81;47.14
74416;SHT31;62850;42.428;25.618;2023-07-28T02:55:46;19.78;46.77
74416;SHT31;62850;42.428;25.618;2023-07-28T02:58:12;19.88;44.76
74416;SHT31;62850;42.428;25.618;2023-07-28T03:00:38;19.97;44.92
74416;SHT31;62850;42.428;25.618;2023-07-28T03:03:08;19.95;45.14
74416;SHT31;62850;42.428;25.618;2023-07-28T03:05:37;19.90;45.44
74416;SHT31;62850;42.428;25.618;2023-07-28T03:08:03;19.78;46.00
74416;SHT31;62850;42.428;25.618;2023-07-28T03:10:29;19.64;46.47
74416;SHT31;62850;42.428;25.618;2023-07-28T03:12:55;19.64;46.26
74416;SHT31;62850;42.428;25.618;2023-07-28T03:15:21;19.54;46.67
74416;SHT31;62850;42.428;25.618;2023-07-28T03:17:50;19.49;46.92
74416;SHT31;62850;42.428;25.618;2023-07-28T03:20:16;19.43;47.41
74416;SHT31;62850;42.428;25.618;2023-07-28T03:22:41;19.40;47.85
74416;SHT31;62850;42.428;25.618;2023-07-28T03:25:08;19.27;47.72
74416;SHT31;62850;42.428;25.618;2023-07-28T03:27:33;19.29;47.92
74416;SHT31;62850;42.428;25.618;2023-07-28T03:29:59;19.22;48.23
74416;SHT31;62850;42.428;25.618;2023-07-28T03:32:25;19.04;49.56
74416;SHT31;62850;42.428;25.618;2023-07-28T03:34:50;19.01;48.84
74416;SHT31;62850;42.428;25.618;2023-07-28T03:37:16;18.99;49.43
74416;SHT31;62850;42.428;25.618;2023-07-28T03:39:41;19.08;48.92
74416;SHT31;62850;42.428;25.618;2023-07-28T03:42:07;19.08;48.70
74416;SHT31;62850;42.428;25.618;2023-07-28T03:44:33;19.11;49.40
74416;SHT31;62850;42.428;25.618;2023-07-28T03:46:59;19.06;50.09
74416;SHT31;62850;42.428;25.618;2023-07-28T03:49:25;19.04;49.25
74416;SHT31;62850;42.428;25.618;2023-07-28T03:51:50;19.15;49.01
74416;SHT31;62850;42.428;25.618;2023-07-28T03:54:15;19.20;49.19
74416;SHT31;62850;42.428;25.618;2023-07-28T03:56:41;19.30;49.05
74416;SHT31;62850;42.428;25.618;2023-07-28T03:59:06;19.19;49.54
74416;SHT31;62850;42.428;25.618;2023-07-28T04:01:32;19.22;48.98
74416;SHT31;62850;42.428;25.618;2023-07-28T04:03:57;19.20;48.59
74416;SHT31;62850;42.428;25.618;2023-07-28T04:06:43;19.26;48.24
74416;SHT31;62850;42.428;25.618;2023-07-28T04:09:08;19.30;49.41
74416;SHT31;62850;42.428;25.618;2023-07-28T04:11:34;19.33;49.78
74416;SHT31;62850;42.428;25.618;2023-07-28T04:14:00;19.32;49.71
74416;SHT31;62850;42.428;25.618;2023-07-28T04:16:25;19.30;48.03
74416;SHT31;62850;42.428;25.618;2023-07-28T04:18:51;19.33;50.21
74416;SHT31;62850;42.428;25.618;2023-07-28T04:21:16;19.40;48.66
74416;SHT31;62850;42.428;25.618;2023-07-28T04:23:41;19.52;48.51
74416;SHT31;62850;42.428;25.618;2023-07-28T04:26:08;19.54;49.65
74416;SHT31;62850;42.428;25.618;2023-07-28T04:28:34;19.56;49.93
74416;SHT31;62850;42.428;25.618;2023-07-28T04:30:59;19.56;49.98
74416;SHT31;62850;42.428;25.618;2023-07-28T04:33:25;19.52;48.90
74416;SHT31;62850;42.428;25.618;2023-07-28T04:35:50;19.59;49.25
74416;SHT31;62850;42.428;25.618;2023-07-28T04:38:16;19.56;47.67
74416;SHT31;62850;42.428;25.618;2023-07-28T04:40:42;19.59;49.64
74416;SHT31;62850;42.428;25.618;2023-07-28T04:43:08;19.64;49.91
74416;SHT31;62850;42.428;25.618;2023-07-28T04:45:33;19.71;49.41
74416;SHT31;62850;42.428;25.618;2023-07-28T04:47:59;19.75;47.75
74416;SHT31;62850;42.428;25.618;2023-07-28T04:50:24;19.75;48.14
74416;SHT31;62850;42.428;25.618;2023-07-28T04:52:49;19.91;48.69
74416;SHT31;62850;42.428;25.618;2023-07-28T04:55:15;19.98;47.91
74416;SHT31;62850;42.428;25.618;2023-07-28T04:57:40;19.98;48.80
74416;SHT31;62850;42.428;25.618;2023-07-28T05:00:06;19.95;48.92
74416;SHT31;62850;42.428;25.618;2023-07-28T05:02:32;20.04;47.51
74416;SHT31;62850;42.428;25.618;2023-07-28T05:04:57;20.08;46.76
74416;SHT31;62850;42.428;25.618;2023-07-28T05:07:23;20.03;48.60
74416;SHT31;62850;42.428;25.618;2023-07-28T05:09:48;20.08;46.99
74416;SHT31;62850;42.428;25.618;2023-07-28T05:12:14;20.22;46.54
74416;SHT31;62850;42.428;25.618;2023-07-28T05:14:39;20.32;47.35
74416;SHT31;62850;42.428;25.618;2023-07-28T05:17:05;20.43;47.18
74416;SHT31;62850;42.428;25.618;2023-07-28T05:19:31;20.49;49.14
74416;SHT31;62850;42.428;25.618;2023-07-28T05:21:57;20.56;49.24
74416;SHT31;62850;42.428;25.618;2023-07-28T05:24:22;20.56;48.55
74416;SHT31;62850;42.428;25.618;2023-07-28T05:26:48;20.62;49.78
74416;SHT31;62850;42.428;25.618;2023-07-28T05:29:13;20.66;49.13
74416;SHT31;62850;42.428;25.618;2023-07-28T05:31:39;20.71;48.84
74416;SHT31;62850;42.428;25.618;2023-07-28T05:34:04;20.79;48.72
74416;SHT31;62850;42.428;25.618;2023-07-28T05:36:30;20.94;47.43
74416;SHT31;62850;42.428;25.618;2023-07-28T05:38:57;20.99;46.92
74416;SHT31;62850;42.428;25.618;2023-07-28T05:41:23;21.08;47.58
74416;SHT31;62850;42.428;25.618;2023-07-28T05:43:49;21.13;47.13
74416;SHT31;62850;42.428;25.618;2023-07-28T05:46:15;21.14;45.93
74416;SHT31;62850;42.428;25.618;2023-07-28T05:48:41;21.11;44.87
74416;SHT31;62850;42.428;25.618;2023-07-28T05:51:06;21.20;44.67
74416;SHT31;62850;42.428;25.618;2023-07-28T05:53:32;21.26;45.90
74416;SHT31;62850;42.428;25.618;2023-07-28T05:55:57;21.27;45.07
74416;SHT31;62850;42.428;25.618;2023-07-28T05:58:23;21.35;44.03
74416;SHT31;62850;42.428;25.618;2023-07-28T06:00:49;21.44;44.16
74416;SHT31;62850;42.428;25.618;2023-07-28T06:03:15;21.47;45.07
74416;SHT31;62850;42.428;25.618;2023-07-28T06:05:41;21.54;43.66
74416;SHT31;62850;42.428;25.618;2023-07-28T06:08:07;21.68;44.46
74416;SHT31;62850;42.428;25.618;2023-07-28T06:10:33;21.78;43.11
74416;SHT31;62850;42.428;25.618;2023-07-28T06:12:59;21.90;43.42
74416;SHT31;62850;42.428;25.618;2023-07-28T06:15:24;21.96;43.52
74416;SHT31;62850;42.428;25.618;2023-07-28T06:17:50;22.08;42.84
74416;SHT31;62850;42.428;25.618;2023-07-28T06:20:15;22.17;43.10
74416;SHT31;62850;42.428;25.618;2023-07-28T06:22:41;22.24;43.10
74416;SHT31;62850;42.428;25.618;2023-07-28T06:25:07;22.29;43.20
74416;SHT31;62850;42.428;25.618;2023-07-28T06:27:32;22.41;41.97
74416;SHT31;62850;42.428;25.618;2023-07-28T06:29:58;22.47;41.95
74416;SHT31;62850;42.428;25.618;2023-07-28T06:32:24;22.53;41.56
74416;SHT31;62850;42.428;25.618;2023-07-28T06:34:49;22.57;41.95
74416;SHT31;62850;42.428;25.618;2023-07-28T06:37:15;22.70;41.61
74416;SHT31;62850;42.428;25.618;2023-07-28T06:39:41;22.83;41.75
74416;SHT31;62850;42.428;25.618;2023-07-28T06:42:07;22.95;40.29
74416;SHT31;62850;42.428;25.618;2023-07-28T06:44:32;23.01;40.45
74416;SHT31;62850;42.428;25.618;2023-07-28T06:46:58;23.15;39.16
74416;SHT31;62850;42.428;25.618;2023-07-28T06:49:23;23.29;38.89
74416;SHT31;62850;42.428;25.618;2023-07-28T06:51:49;23.32;40.06
74416;SHT31;62850;42.428;25.618;2023-07-28T06:54:14;23.42;39.43
74416;SHT31;62850;42.428;25.618;2023-07-28T06:56:40;23.52;39.63
74416;SHT31;62850;42.428;25.618;2023-07-28T06:59:07;23.60;39.50
74416;SHT31;62850;42.428;25.618;2023-07-28T07:01:33;23.60;38.71
74416;SHT31;62850;42.428;25.618;2023-07-28T07:03:59;23.59;39.29
74416;SHT31;62850;42.428;25.618;2023-07-28T07:06:24;23.65;39.14
74416;SHT31;62850;42.428;25.618;2023-07-28T07:08:50;23.70;38.33
74416;SHT31;62850;42.428;25.618;2023-07-28T07:11:16;23.70;39.03
74416;SHT31;62850;42.428;25.618;2023-07-28T07:13:41;23.80;38.75
74416;SHT31;62850;42.428;25.618;2023-07-28T07:16:14;23.96;37.13
74416;SHT31;62850;42.428;25.618;2023-07-28T07:18:42;24.08;36.89
74416;SHT31;62850;42.428;25.618;2023-07-28T07:21:08;24.17;37.60
74416;SHT31;62850;42.428;25.618;2023-07-28T07:23:33;24.22;37.50
74416;SHT31;62850;42.428;25.618;2023-07-28T07:25:58;24.31;38.12
74416;SHT31;62850;42.428;25.618;2023-07-28T07:28:24;24.45;36.96
74416;SHT31;62850;42.428;25.618;2023-07-28T07:30:49;24.34;36.71
74416;SHT31;62850;42.428;25.618;2023-07-28T07:33:15;24.42;37.14
74416;SHT31;62850;42.428;25.618;2023-07-28T07:35:40;24.39;33.78
74416;SHT31;62850;42.428;25.618;2023-07-28T07:38:06;24.54;35.20
74416;SHT31;62850;42.428;25.618;2023-07-28T07:40:37;24.66;35.47
74416;SHT31;62850;42.428;25.618;2023-07-28T07:43:03;24.73;35.67
74416;SHT31;62850;42.428;25.618;2023-07-28T07:45:29;24.80;34.56
74416;SHT31;62850;42.428;25.618;2023-07-28T07:47:55;24.90;35.24
74416;SHT31;62850;42.428;25.618;2023-07-28T07:50:20;25.09;33.47
74416;SHT31;62850;42.428;25.618;2023-07-28T07:52:47;25.31;32.34
74416;SHT31;62850;42.428;25.618;2023-07-28T07:55:12;25.57;33.02
74416;SHT31;62850;42.428;25.618;2023-07-28T07:57:38;25.70;32.99
74416;SHT31;62850;42.428;25.618;2023-07-28T08:00:05;25.82;32.58
74416;SHT31;62850;42.428;25.618;2023-07-28T08:02:31;25.80;32.70
74416;SHT31;62850;42.428;25.618;2023-07-28T08:04:56;26.05;33.49
74416;SHT31;62850;42.428;25.618;2023-07-28T08:07:21;26.26;32.99
74416;SHT31;62850;42.428;25.618;2023-07-28T08:09:48;26.44;32.52
74416;SHT31;62850;42.428;25.618;2023-07-28T08:12:14;26.54;32.01
74416;SHT31;62850;42.428;25.618;2023-07-28T08:14:40;26.71;31.06
74416;SHT31;62850;42.428;25.618;2023-07-28T08:17:05;26.74;31.79
74416;SHT31;62850;42.428;25.618;2023-07-28T08:19:31;26.86;31.38
74416;SHT31;62850;42.428;25.618;2023-07-28T08:21:56;26.98;30.14
74416;SHT31;62850;42.428;25.618;2023-07-28T08:24:22;27.01;30.93
74416;SHT31;62850;42.428;25.618;2023-07-28T08:26:47;26.88;31.65
74416;SHT31;62850;42.428;25.618;2023-07-28T08:29:13;27.05;31.20
74416;SHT31;62850;42.428;25.618;2023-07-28T08:31:38;27.01;30.71
74416;SHT31;62850;42.428;25.618;2023-07-28T08:34:03;27.18;31.50
74416;SHT31;62850;42.428;25.618;2023-07-28T08:36:29;27.29;30.24
74416;SHT31;62850;42.428;25.618;2023-07-28T08:38:54;27.52;30.59
74416;SHT31;62850;42.428;25.618;2023-07-28T08:41:20;27.70;30.26
74416;SHT31;62850;42.428;25.618;2023-07-28T08:43:45;27.69;30.03
74416;SHT31;62850;42.428;25.618;2023-07-28T08:46:11;27.65;29.59
74416;SHT31;62850;42.428;25.618;2023-07-28T08:48:37;27.71;29.90
74416;SHT31;62850;42.428;25.618;2023-07-28T08:51:03;27.89;29.91
74416;SHT31;62850;42.428;25.618;2023-07-28T08:53:30;27.93;29.69
74416;SHT31;62850;42.428;25.618;2023-07-28T08:55:56;28.10;29.35
74416;SHT31;62850;42.428;25.618;2023-07-28T08:58:22;28.24;28.87
74416;SHT31;62850;42.428;25.618;2023-07-28T09:00:50;28.18;29.54
74416;SHT31;62850;42.428;25.618;2023-07-28T09:03:17;28.21;29.37
74416;SHT31;62850;42.428;25.618;2023-07-28T09:05:43;28.08;29.19
74416;SHT31;62850;42.428;25.618;2023-07-28T09:08:09;28.07;29.18
74416;SHT31;62850;42.428;25.618;2023-07-28T09:10:46;28.27;29.39
74416;SHT31;62850;42.428;25.618;2023-07-28T09:13:16;28.29;28.62
74416;SHT31;62850;42.428;25.618;2023-07-28T09:15:41;28.24;29.43
74416;SHT31;62850;42.428;25.618;2023-07-28T09:18:08;28.48;29.60
74416;SHT31;62850;42.428;25.618;2023-07-28T09:20:36;28.67;28.55
74416;SHT31;62850;42.428;25.618;2023-07-28T09:23:02;28.65;28.38
74416;SHT31;62850;42.428;25.618;2023-07-28T09:25:29;28.61;28.77
74416;SHT31;62850;42.428;25.618;2023-07-28T09:28:00;28.82;28.84
74416;SHT31;62850;42.428;25.618;2023-07-28T09:30:26;28.85;28.60
74416;SHT31;62850;42.428;25.618;2023-07-28T09:32:54;28.85;29.01
74416;SHT31;62850;42.428;25.618;2023-07-28T09:35:21;28.98;29.11
74416;SHT31;62850;42.428;25.618;2023-07-28T09:37:49;29.16;27.87
74416;SHT31;62850;42.428;25.618;2023-07-28T09:40:17;29.12;27.80
74416;SHT31;62850;42.428;25.618;2023-07-28T09:42:45;29.20;28.52
74416;SHT31;62850;42.428;25.618;2023-07-28T09:45:15;29.27;28.01
74416;SHT31;62850;42.428;25.618;2023-07-28T09:47:43;29.23;27.62
74416;SHT31;62850;42.428;25.618;2023-07-28T09:50:10;29.36;28.35
74416;SHT31;62850;42.428;25.618;2023-07-28T09:52:42;29.25;27.48
74416;SHT31;62850;42.428;25.618;2023-07-28T09:55:10;29.10;27.11
74416;SHT31;62850;42.428;25.618;2023-07-28T09:57:41;29.23;26.99
74416;SHT31;62850;42.428;25.618;2023-07-28T10:00:11;29.46;27.65
74416;SHT31;62850;42.428;25.618;2023-07-28T10:02:37;29.58;27.53
74416;SHT31;62850;42.428;25.618;2023-07-28T10:05:04;29.74;26.54
74416;SHT31;62850;42.428;25.618;2023-07-28T10:07:30;29.68;28.30
74416;SHT31;62850;42.428;25.618;2023-07-28T10:09:56;29.81;27.92
74416;SHT31;62850;42.428;25.618;2023-07-28T10:12:25;29.91;28.22
74416;SHT31;62850;42.428;25.618;2023-07-28T10:15:02;29.98;26.60
74416;SHT31;62850;42.428;25.618;2023-07-28T10:17:32;30.02;27.98
74416;SHT31;62850;42.428;25.618;2023-07-28T10:20:06;30.11;25.70
74416;SHT31;62850;42.428;25.618;2023-07-28T10:22:45;30.06;26.29
74416;SHT31;62850;42.428;25.618;2023-07-28T10:25:11;30.21;25.62
74416;SHT31;62850;42.428;25.618;2023-07-28T10:27:38;30.23;26.48
74416;SHT31;62850;42.428;25.618;2023-07-28T10:30:11;30.28;25.20
74416;SHT31;62850;42.428;25.618;2023-07-28T10:32:39;30.33;25.19
74416;SHT31;62850;42.428;25.618;2023-07-28T10:35:28;30.32;23.69
74416;SHT31;62850;42.428;25.618;2023-07-28T10:37:56;30.11;24.06
74416;SHT31;62850;42.428;25.618;2023-07-28T10:42:48;29.82;24.89
74416;SHT31;62850;42.428;25.618;2023-07-28T10:45:13;29.88;24.83
74416;SHT31;62850;42.428;25.618;2023-07-28T10:47:41;29.61;24.87
74416;SHT31;62850;42.428;25.618;2023-07-28T10:50:09;29.71;24.94
74416;SHT31;62850;42.428;25.618;2023-07-28T10:52:42;30.04;25.20
74416;SHT31;62850;42.428;25.618;2023-07-28T10:55:18;30.23;25.38
74416;SHT31;62850;42.428;25.618;2023-07-28T10:57:46;30.26;22.61
74416;SHT31;62850;42.428;25.618;2023-07-28T11:00:14;30.16;22.65
74416;SHT31;62850;42.428;25.618;2023-07-28T11:02:47;30.23;22.97
74416;SHT31;62850;42.428;25.618;2023-07-28T11:05:29;30.18;22.68
74416;SHT31;62850;42.428;25.618;2023-07-28T11:07:57;30.08;23.65
74416;SHT31;62850;42.428;25.618;2023-07-28T11:10:23;30.15;22.85
74416;SHT31;62850;42.428;25.618;2023-07-28T11:12:51;30.25;22.68
74416;SHT31;62850;42.428;25.618;2023-07-28T11:15:17;30.21;22.44
74416;SHT31;62850;42.428;25.618;2023-07-28T11:17:48;29.94;23.05
74416;SHT31;62850;42.428;25.618;2023-07-28T11:20:24;29.91;22.69
74416;SHT31;62850;42.428;25.618;2023-07-28T11:25:19;30.42;23.05
74416;SHT31;62850;42.428;25.618;2023-07-28T11:27:47;30.72;22.94
74416;SHT31;62850;42.428;25.618;2023-07-28T11:30:14;30.91;22.72
74416;SHT31;62850;42.428;25.618;2023-07-28T11:32:42;30.93;22.18
74416;SHT31;62850;42.428;25.618;2023-07-28T11:35:10;31.03;22.79
74416;SHT31;62850;42.428;25.618;2023-07-28T11:37:37;31.17;22.93
74416;SHT31;62850;42.428;25.618;2023-07-28T11:40:04;31.32;22.20
74416;SHT31;62850;42.428;25.618;2023-07-28T11:42:54;31.31;22.15
74416;SHT31;62850;42.428;25.618;2023-07-28T11:45:20;31.41;22.12
74416;SHT31;62850;42.428;25.618;2023-07-28T11:47:54;31.35;22.67
74416;SHT31;62850;42.428;25.618;2023-07-28T11:50:25;31.48;22.47
74416;SHT31;62850;42.428;25.618;2023-07-28T11:52:51;31.48;21.81
74416;SHT31;62850;42.428;25.618;2023-07-28T11:55:16;31.25;22.51
74416;SHT31;62850;42.428;25.618;2023-07-28T11:57:43;31.59;22.37
74416;SHT31;62850;42.428;25.618;2023-07-28T12:00:09;31.88;22.23
74416;SHT31;62850;42.428;25.618;2023-07-28T12:02:35;31.75;21.93
74416;SHT31;62850;42.428;25.618;2023-07-28T12:05:01;31.69;21.18
74416;SHT31;62850;42.428;25.618;2023-07-28T12:07:31;31.90;21.97
74416;SHT31;62850;42.428;25.618;2023-07-28T12:09:56;32.08;22.16
74416;SHT31;62850;42.428;25.618;2023-07-28T12:12:29;32.16;21.61
74416;SHT31;62850;42.428;25.618;2023-07-28T12:14:56;32.12;22.17
74416;SHT31;62850;42.428;25.618;2023-07-28T12:17:25;32.24;21.10
74416;SHT31;62850;42.428;25.618;2023-07-28T12:20:06;32.26;21.15
74416;SHT31;62850;42.428;25.618;2023-07-28T12:22:40;32.41;21.99
74416;SHT31;62850;42.428;25.618;2023-07-28T12:25:06;32.53;21.42
74416;SHT31;62850;42.428;25.618;2023-07-28T12:27:32;32.67;21.14
74416;SHT31;62850;42.428;25.618;2023-07-28T12:29:58;32.58;21.42
74416;SHT31;62850;42.428;25.618;2023-07-28T12:32:23;32.54;22.12
74416;SHT31;62850;42.428;25.618;2023-07-28T12:34:50;32.48;21.19
74416;SHT31;62850;42.428;25.618;2023-07-28T12:37:16;32.36;21.19
74416;SHT31;62850;42.428;25.618;2023-07-28T12:39:41;32.41;21.06
74416;SHT31;62850;42.428;25.618;2023-07-28T12:42:08;32.58;21.05
74416;SHT31;62850;42.428;25.618;2023-07-28T12:44:34;32.74;21.44
74416;SHT31;62850;42.428;25.618;2023-07-28T12:47:01;32.79;21.14
74416;SHT31;62850;42.428;25.618;2023-07-28T12:49:27;32.81;20.99
74416;SHT31;62850;42.428;25.618;2023-07-28T12:51:55;32.70;21.08
74416;SHT31;62850;42.428;25.618;2023-07-28T12:54:22;32.72;20.60
74416;SHT31;62850;42.428;25.618;2023-07-28T12:56:47;32.78;20.67
74416;SHT31;62850;42.428;25.618;2023-07-28T12:59:14;32.92;21.24
74416;SHT31;62850;42.428;25.618;2023-07-28T13:01:39;32.85;21.75
74416;SHT31;62850;42.428;25.618;2023-07-28T13:04:04;32.77;20.41
74416;SHT31;62850;42.428;25.618;2023-07-28T13:06:30;32.85;20.66
74416;SHT31;62850;42.428;25.618;2023-07-28T13:08:55;32.95;21.68
74416;SHT31;62850;42.428;25.618;2023-07-28T13:11:21;32.97;20.77
74416;SHT31;62850;42.428;25.618;2023-07-28T13:13:46;33.12;20.38
74416;SHT31;62850;42.428;25.618;2023-07-28T13:16:12;33.22;21.06
74416;SHT31;62850;42.428;25.618;2023-07-28T13:18:37;33.23;20.33
74416;SHT31;62850;42.428;25.618;2023-07-28T13:21:04;33.32;19.94
74416;SHT31;62850;42.428;25.618;2023-07-28T13:23:31;33.36;20.91
74416;SHT31;62850;42.428;25.618;2023-07-28T13:25:57;33.36;21.51
74416;SHT31;62850;42.428;25.618;2023-07-28T13:28:22;33.35;20.78
74416;SHT31;62850;42.428;25.618;2023-07-28T13:30:49;33.41;20.57
74416;SHT31;62850;42.428;25.618;2023-07-28T13:33:14;33.01;20.82
74416;SHT31;62850;42.428;25.618;2023-07-28T13:35:40;33.25;20.45
74416;SHT31;62850;42.428;25.618;2023-07-28T13:38:05;33.09;20.62
74416;SHT31;62850;42.428;25.618;2023-07-28T13:40:31;33.21;20.97
74416;SHT31;62850;42.428;25.618;2023-07-28T13:42:56;33.43;21.36
74416;SHT31;62850;42.428;25.618;2023-07-28T13:45:22;33.49;20.60
74416;SHT31;62850;42.428;25.618;2023-07-28T13:47:48;33.42;19.82
74416;SHT31;62850;42.428;25.618;2023-07-28T13:50:13;33.28;20.32
74416;SHT31;62850;42.428;25.618;2023-07-28T13:52:38;33.16;20.51
74416;SHT31;62850;42.428;25.618;2023-07-28T13:55:04;33.05;21.31
74416;SHT31;62850;42.428;25.618;2023-07-28T13:57:31;32.97;21.00
74416;SHT31;62850;42.428;25.618;2023-07-28T13:59:57;33.14;21.04
74416;SHT31;62850;42.428;25.618;2023-07-28T14:02:22;33.26;21.02
74416;SHT31;62850;42.428;25.618;2023-07-28T14:04:48;33.35;21.43
74416;SHT31;62850;42.428;25.618;2023-07-28T14:07:13;33.37;21.24
74416;SHT31;62850;42.428;25.618;2023-07-28T14:09:39;33.41;20.66
74416;SHT31;62850;42.428;25.618;2023-07-28T14:12:05;33.32;21.41
74416;SHT31;62850;42.428;25.618;2023-07-28T14:14:31;33.25;21.17
74416;SHT31;62850;42.428;25.618;2023-07-28T14:16:57;33.35;21.42
74416;SHT31;62850;42.428;25.618;2023-07-28T14:19:23;33.22;21.15
74416;SHT31;62850;42.428;25.618;2023-07-28T14:21:48;33.09;20.78
74416;SHT31;62850;42.428;25.618;2023-07-28T14:24:14;33.08;20.78
74416;SHT31;62850;42.428;25.618;2023-07-28T14:26:39;32.98;20.96
74416;SHT31;62850;42.428;25.618;2023-07-28T14:29:05;32.87;20.98
74416;SHT31;62850;42.428;25.618;2023-07-28T14:31:31;32.88;21.02
74416;SHT31;62850;42.428;25.618;2023-07-28T14:33:56;32.98;20.68
74416;SHT31;62850;42.428;25.618;2023-07-28T14:36:22;32.94;20.31
74416;SHT31;62850;42.428;25.618;2023-07-28T14:38:47;33.02;21.02
74416;SHT31;62850;42.428;25.618;2023-07-28T14:41:13;32.99;21.44
74416;SHT31;62850;42.428;25.618;2023-07-28T14:43:38;33.16;21.33
74416;SHT31;62850;42.428;25.618;2023-07-28T14:46:04;32.95;20.97
74416;SHT31;62850;42.428;25.618;2023-07-28T14:48:29;32.70;21.24
74416;SHT31;62850;42.428;25.618;2023-07-28T14:50:55;32.84;21.14
74416;SHT31;62850;42.428;25.618;2023-07-28T14:53:37;32.78;20.73
74416;SHT31;62850;42.428;25.618;2023-07-28T14:56:04;32.75;21.26
74416;SHT31;62850;42.428;25.618;2023-07-28T14:58:30;32.63;20.93
74416;SHT31;62850;42.428;25.618;2023-07-28T15:00:56;32.54;21.78
74416;SHT31;62850;42.428;25.618;2023-07-28T15:03:26;32.58;21.30
74416;SHT31;62850;42.428;25.618;2023-07-28T15:05:51;32.57;21.48
74416;SHT31;62850;42.428;25.618;2023-07-28T15:08:17;32.50;21.38
74416;SHT31;62850;42.428;25.618;2023-07-28T15:10:42;32.44;21.29
74416;SHT31;62850;42.428;25.618;2023-07-28T15:13:08;32.47;21.14
74416;SHT31;62850;42.428;25.618;2023-07-28T15:15:33;32.44;20.97
74416;SHT31;62850;42.428;25.618;2023-07-28T15:17:59;32.26;21.58
74416;SHT31;62850;42.428;25.618;2023-07-28T15:20:25;32.13;21.94
74416;SHT31;62850;42.428;25.618;2023-07-28T15:22:50;32.10;22.18